Time;durP1;ratioP1;P1;durP2;ratioP2;P2;SDS_P1;SDS_P2;PMS_P1;PMS_P2;Temp;Humidity;BMP_temperature;BMP_pressure;BME280_temperature;BME280_humidity;BME280_pressure;Samples;Min_cycle;Max_cycle;Signal;HPM_P1;HPM_P2
2021/12/04 00:02:04;;;;;;;0.60;0.60;;;2.20;99.90;;;;;;4421479;32;20141;-70
2021/12/04 00:04:33;;;;;;;0.55;0.55;;;2.20;99.90;;;;;;4420050;32;20081;-69
2021/12/04 00:06:59;;;;;;;0.57;0.57;;;2.20;99.90;;;;;;4418604;32;20152;-69
2021/12/04 00:09:25;;;;;;;1.08;1.08;;;2.20;99.90;;;;;;4415377;32;20477;-72
2021/12/04 00:11:54;;;;;;;0.90;0.82;;;2.00;99.90;;;;;;4417819;32;20069;-70
2021/12/04 00:14:19;;;;;;;0.30;0.30;;;2.00;99.90;;;;;;4416140;32;20090;-70
2021/12/04 00:16:45;;;;;;;0.40;0.40;;;2.00;99.90;;;;;;4413805;32;20093;-69
2021/12/04 00:19:12;;;;;;;0.50;0.50;;;2.00;99.90;;;;;;4418121;32;20077;-69
2021/12/04 00:21:37;;;;;;;0.73;0.73;;;2.00;99.90;;;;;;4425150;32;20066;-69
2021/12/04 00:24:03;;;;;;;7.65;1.20;;;1.90;99.90;;;;;;4416400;32;20094;-69
2021/12/04 00:26:28;;;;;;;0.43;0.43;;;2.00;99.90;;;;;;4420944;32;20069;-69
2021/12/04 00:28:54;;;;;;;0.30;0.30;;;2.00;99.90;;;;;;4415625;32;20561;-69
2021/12/04 00:31:19;;;;;;;0.50;0.50;;;2.10;99.90;;;;;;4419680;32;20074;-69
2021/12/04 00:33:46;;;;;;;0.50;0.50;;;2.10;99.90;;;;;;4414905;32;20577;-68
2021/12/04 00:36:26;;;;;;;0.55;0.55;;;2.10;99.90;;;;;;4419874;32;20149;-69
2021/12/04 00:49:10;;;;;;;0.30;0.30;;;2.20;99.90;;;;;;4408246;32;20181;-69
2021/12/04 00:49:53;;;;;;;0.55;0.55;;;2.20;99.90;;;;;;4412507;32;20065;-69
2021/12/04 00:52:19;;;;;;;3.58;1.35;;;2.20;99.90;;;;;;4418404;32;20086;-69
2021/12/04 00:54:45;;;;;;;0.50;0.50;;;2.20;99.90;;;;;;4421148;32;20066;-69
2021/12/04 00:57:11;;;;;;;0.40;0.40;;;2.20;99.90;;;;;;4423508;32;20139;-68
2021/12/04 00:59:37;;;;;;;0.30;0.30;;;2.30;99.90;;;;;;4420883;32;20074;-69
2021/12/04 01:02:04;;;;;;;0.37;0.37;;;2.40;99.90;;;;;;4418028;32;20137;-70
2021/12/04 01:04:30;;;;;;;0.40;0.40;;;2.20;99.90;;;;;;4419206;32;20585;-69
2021/12/04 01:06:56;;;;;;;0.30;0.30;;;2.10;99.90;;;;;;4415306;32;20113;-69
2021/12/04 01:09:24;;;;;;;0.47;0.47;;;2.20;99.90;;;;;;4416356;32;20549;-69
2021/12/04 01:11:51;;;;;;;0.40;0.40;;;2.20;99.90;;;;;;4417766;32;20061;-69
2021/12/04 01:14:19;;;;;;;0.40;0.40;;;2.10;99.90;;;;;;4418001;32;20519;-69
2021/12/04 01:16:45;;;;;;;0.35;0.35;;;2.20;99.90;;;;;;4419959;32;20120;-69
2021/12/04 01:19:11;;;;;;;0.40;0.40;;;2.20;99.90;;;;;;4417164;32;20069;-69
2021/12/04 01:21:36;;;;;;;0.40;0.40;;;2.10;99.90;;;;;;4420924;32;20074;-69
2021/12/04 01:24:02;;;;;;;0.30;0.30;;;2.20;99.90;;;;;;4415165;32;20154;-69
2021/12/04 01:26:28;;;;;;;0.40;0.40;;;2.20;99.90;;;;;;4416460;32;20128;-69
2021/12/04 01:28:55;;;;;;;0.50;0.50;;;2.20;99.90;;;;;;4416105;32;20466;-69
2021/12/04 01:31:21;;;;;;;0.30;0.30;;;2.20;99.90;;;;;;4417484;32;20090;-69
2021/12/04 01:33:47;;;;;;;0.40;0.40;;;2.20;99.90;;;;;;4415109;32;20126;-69
2021/12/04 01:36:12;;;;;;;0.30;0.30;;;2.30;99.90;;;;;;4416013;32;20508;-69
2021/12/04 01:38:38;;;;;;;0.40;0.40;;;2.30;99.90;;;;;;4419091;32;20113;-70
2021/12/04 01:41:04;;;;;;;0.73;0.73;;;2.30;99.90;;;;;;4424028;32;20123;-70
2021/12/04 01:43:30;;;;;;;0.50;0.50;;;2.30;99.90;;;;;;4420097;32;20089;-69
2021/12/04 01:45:56;;;;;;;0.88;0.88;;;2.30;99.90;;;;;;4419874;32;20062;-69
2021/12/04 01:48:22;;;;;;;0.50;0.50;;;2.30;99.90;;;;;;4416677;32;20057;-69
2021/12/04 01:50:48;;;;;;;0.47;0.47;;;2.40;99.90;;;;;;4419104;32;20140;-69
2021/12/04 01:53:14;;;;;;;0.35;0.35;;;2.30;99.90;;;;;;4421022;32;20152;-69
2021/12/04 01:55:39;;;;;;;0.30;0.30;;;2.30;99.90;;;;;;4418647;32;20065;-69
2021/12/04 01:58:06;;;;;;;0.40;0.40;;;2.30;99.90;;;;;;4421829;32;20499;-69
2021/12/04 02:00:35;;;;;;;0.68;0.45;;;2.40;99.90;;;;;;4418256;32;20431;-69
2021/12/04 02:03:03;;;;;;;0.60;0.60;;;2.40;99.90;;;;;;4418436;32;20061;-69
2021/12/04 02:05:28;;;;;;;0.50;0.50;;;2.40;99.90;;;;;;4419771;32;20347;-69
2021/12/04 02:07:54;;;;;;;0.60;0.60;;;2.40;99.90;;;;;;4417532;32;20070;-69
2021/12/04 02:10:19;;;;;;;0.50;0.50;;;2.40;99.90;;;;;;4421276;32;20108;-69
2021/12/04 02:12:46;;;;;;;0.40;0.40;;;2.40;99.90;;;;;;4419188;32;20419;-69
2021/12/04 02:15:13;;;;;;;0.50;0.50;;;2.40;99.90;;;;;;4416174;32;20065;-69
2021/12/04 02:17:40;;;;;;;0.45;0.45;;;2.40;99.90;;;;;;4420871;32;20073;-69
2021/12/04 02:20:11;;;;;;;0.30;0.30;;;2.40;99.90;;;;;;4417694;32;20113;-69
2021/12/04 02:22:36;;;;;;;0.52;0.52;;;2.30;99.90;;;;;;4413859;32;20180;-70
2021/12/04 02:25:02;;;;;;;0.50;0.50;;;2.30;99.90;;;;;;4416726;32;20089;-69
2021/12/04 02:27:28;;;;;;;0.43;0.43;;;2.30;99.90;;;;;;4421811;32;20435;-69
2021/12/04 02:29:53;;;;;;;0.50;0.50;;;2.20;99.90;;;;;;4416142;32;20061;-69
2021/12/04 02:32:20;;;;;;;0.40;0.40;;;2.20;99.90;;;;;;4417095;32;20093;-70
2021/12/04 02:34:45;;;;;;;0.50;0.50;;;2.10;99.90;;;;;;4417895;32;20052;-69
2021/12/04 02:37:11;;;;;;;0.50;0.50;;;2.10;99.90;;;;;;4414665;32;20188;-69
2021/12/04 02:39:41;;;;;;;0.47;0.47;;;2.10;99.90;;;;;;4416073;32;20105;-70
2021/12/04 02:42:18;;;;;;;;;;;2.20;99.90;;;;;;4418237;32;20082;-68
2021/12/04 02:44:45;;;;;;;0.50;0.50;;;2.20;99.90;;;;;;4416728;32;20359;-70
2021/12/04 02:47:11;;;;;;;0.47;0.47;;;2.30;99.90;;;;;;4421293;32;20093;-69
2021/12/04 02:49:36;;;;;;;4.47;1.23;;;2.30;99.90;;;;;;4415477;32;20062;-68
2021/12/04 02:52:04;;;;;;;0.52;0.52;;;2.40;99.90;;;;;;4416808;32;20073;-69
2021/12/04 02:54:31;;;;;;;0.77;0.77;;;2.40;99.90;;;;;;4420037;32;20053;-69
2021/12/04 02:56:57;;;;;;;0.82;0.82;;;2.50;99.90;;;;;;4422558;32;20497;-69
2021/12/04 02:59:23;;;;;;;0.50;0.50;;;2.40;99.90;;;;;;4418237;32;20197;-69
2021/12/04 03:01:52;;;;;;;0.45;0.45;;;2.30;99.90;;;;;;4418907;32;20145;-69
2021/12/04 03:04:18;;;;;;;0.37;0.37;;;2.30;99.90;;;;;;4418373;32;20089;-68
2021/12/04 03:06:46;;;;;;;0.50;0.50;;;2.40;99.90;;;;;;4421884;32;20141;-69
2021/12/04 03:09:13;;;;;;;0.77;0.77;;;2.40;99.90;;;;;;4420006;32;20542;-70
2021/12/04 03:11:39;;;;;;;0.88;0.88;;;2.30;99.90;;;;;;4420586;32;20069;-68
2021/12/04 03:14:05;;;;;;;0.82;0.82;;;2.30;99.90;;;;;;4420024;32;20097;-69
2021/12/04 03:16:32;;;;;;;0.40;0.40;;;2.30;99.90;;;;;;4419744;32;20069;-69
2021/12/04 03:18:57;;;;;;;0.68;0.68;;;2.40;99.90;;;;;;4420277;32;20062;-70
2021/12/04 03:21:23;;;;;;;0.50;0.50;;;2.50;99.90;;;;;;4421436;32;20385;-69
2021/12/04 03:24:00;;;;;;;0.40;0.40;;;2.50;99.90;;;;;;4416860;32;20081;-69
2021/12/04 03:26:26;;;;;;;1.80;1.20;;;2.50;99.90;;;;;;4420357;32;20104;-69
2021/12/04 03:28:53;;;;;;;0.30;0.30;;;2.50;99.90;;;;;;4419361;32;20546;-69
2021/12/04 03:31:36;;;;;;;0.40;0.40;;;2.50;99.90;;;;;;4424782;32;20409;-69
2021/12/04 03:40:49;;;;;;;0.30;0.30;;;2.50;99.90;;;;;;4411661;32;20400;-69
2021/12/04 03:42:21;;;;;;;0.32;0.32;;;2.40;99.90;;;;;;4406012;32;20104;-69
2021/12/04 03:44:47;;;;;;;0.60;0.60;;;2.40;99.90;;;;;;4419962;32;20061;-69
2021/12/04 03:47:13;;;;;;;1.35;0.40;;;2.50;99.90;;;;;;4424191;32;20090;-69
2021/12/04 03:49:38;;;;;;;0.52;0.52;;;2.50;99.90;;;;;;4418072;32;20164;-69
2021/12/04 03:52:06;;;;;;;0.40;0.40;;;2.50;99.90;;;;;;4420526;32;20101;-70
2021/12/04 03:54:31;;;;;;;1.90;1.02;;;2.50;99.90;;;;;;4421683;32;20081;-69
2021/12/04 03:57:04;;;;;;;0.37;0.37;;;2.50;99.90;;;;;;4422193;32;20066;-69
2021/12/04 03:59:32;;;;;;;0.50;0.50;;;2.50;99.90;;;;;;4422030;32;20083;-69
2021/12/04 04:01:57;;;;;;;0.30;0.30;;;2.50;99.90;;;;;;4417283;32;20066;-69
2021/12/04 04:04:23;;;;;;;0.40;0.40;;;2.50;99.90;;;;;;4419598;32;20094;-68
2021/12/04 04:06:49;;;;;;;0.57;0.57;;;2.60;99.90;;;;;;4423067;32;20541;-69
2021/12/04 04:09:14;;;;;;;0.40;0.40;;;2.70;99.90;;;;;;4420405;32;20117;-70
2021/12/04 04:11:41;;;;;;;0.40;0.40;;;2.60;99.90;;;;;;4426727;32;20069;-69
2021/12/04 04:14:07;;;;;;;0.40;0.40;;;2.70;99.90;;;;;;4418983;32;20069;-69
2021/12/04 04:16:37;;;;;;;2.92;0.90;;;2.70;99.90;;;;;;4416822;32;20065;-69
2021/12/04 04:19:03;;;;;;;0.60;0.60;;;2.70;99.90;;;;;;4417572;32;20071;-70
2021/12/04 04:21:29;;;;;;;0.50;0.50;;;2.60;99.90;;;;;;4419052;32;20152;-69
2021/12/04 04:23:54;;;;;;;0.43;0.43;;;2.70;99.90;;;;;;4419397;32;20471;-68
2021/12/04 04:26:20;;;;;;;0.52;0.52;;;2.70;99.90;;;;;;4414755;32;20122;-69
2021/12/04 04:28:45;;;;;;;0.37;0.37;;;2.50;99.90;;;;;;4419578;32;20369;-69
2021/12/04 04:31:11;;;;;;;2.42;0.80;;;2.50;99.90;;;;;;4422455;32;20598;-68
2021/12/04 04:33:40;;;;;;;0.70;0.50;;;2.50;99.90;;;;;;4415286;32;105083;-69
2021/12/04 04:36:18;;;;;;;0.50;0.50;;;2.50;99.90;;;;;;4420203;32;20591;-69
2021/12/04 04:38:54;;;;;;;0.40;0.40;;;2.60;99.90;;;;;;4422042;32;20105;-69
2021/12/04 04:57:57;;;;;;;2.25;1.10;;;2.60;99.90;;;;;;4406447;32;20128;-68
2021/12/04 04:59:06;;;;;;;0.40;0.40;;;2.60;99.90;;;;;;4406686;32;20094;-69
2021/12/04 05:11:36;;;;;;;0.40;0.40;;;2.50;99.90;;;;;;4408738;32;20149;-69
2021/12/04 05:11:45;;;;;;;0.70;0.70;;;2.60;99.90;;;;;;4405986;32;20090;-69
2021/12/04 05:14:18;;;;;;;0.40;0.40;;;2.50;99.90;;;;;;4416151;32;20163;-69
2021/12/04 05:16:51;;;;;;;0.47;0.47;;;2.50;99.90;;;;;;4422291;32;20712;-69
2021/12/04 05:20:21;;;;;;;0.70;0.70;;;2.40;99.90;;;;;;4418165;32;20106;-69
2021/12/04 05:22:02;;;;;;;0.50;0.50;;;2.40;99.90;;;;;;4408125;32;20470;-68
2021/12/04 05:24:27;;;;;;;0.75;0.75;;;2.40;99.90;;;;;;4419374;32;20062;-69
2021/12/04 05:26:53;;;;;;;0.43;0.43;;;2.40;99.90;;;;;;4422777;32;20125;-69
2021/12/04 05:29:18;;;;;;;2.85;1.67;;;2.50;99.90;;;;;;4416712;32;20073;-69
2021/12/04 05:31:44;;;;;;;0.30;0.30;;;2.40;99.90;;;;;;4422498;32;20109;-69
2021/12/04 05:34:09;;;;;;;0.30;0.30;;;2.50;99.90;;;;;;4416188;32;20478;-69
2021/12/04 05:36:35;;;;;;;0.40;0.40;;;2.50;99.90;;;;;;4418567;32;20070;-68
2021/12/04 05:39:02;;;;;;;0.30;0.30;;;2.50;99.90;;;;;;4421664;32;20069;-68
2021/12/04 05:41:27;;;;;;;0.35;0.35;;;2.40;99.90;;;;;;4421700;32;20065;-69
2021/12/04 05:43:53;;;;;;;0.30;0.30;;;2.40;99.90;;;;;;4419441;32;20069;-69
2021/12/04 05:46:24;;;;;;;1.42;1.33;;;2.40;99.90;;;;;;4420481;32;20089;-68
2021/12/04 05:48:55;;;;;;;0.40;0.40;;;2.40;99.90;;;;;;4417808;32;20077;-69
2021/12/04 05:52:41;;;;;;;0.40;0.40;;;2.30;99.90;;;;;;4415994;32;20101;-68
2021/12/04 05:54:19;;;;;;;0.40;0.40;;;2.40;99.90;;;;;;4404820;32;20090;-69
2021/12/04 05:56:45;;;;;;;2.92;1.48;;;2.40;99.90;;;;;;4418203;32;20177;-68
2021/12/04 05:59:10;;;;;;;0.37;0.37;;;2.30;99.90;;;;;;4421144;32;20182;-69
2021/12/04 06:01:36;;;;;;;0.47;0.47;;;2.30;99.90;;;;;;4418592;32;20069;-69
2021/12/04 06:04:02;;;;;;;0.62;0.50;;;2.30;99.90;;;;;;4418296;32;20975;-68
2021/12/04 06:06:28;;;;;;;0.50;0.50;;;2.20;99.90;;;;;;4416904;32;20526;-68
2021/12/04 06:08:54;;;;;;;0.40;0.40;;;2.20;99.90;;;;;;4417548;32;20082;-69
2021/12/04 06:11:19;;;;;;;0.98;0.95;;;2.20;99.90;;;;;;4414979;32;20073;-69
2021/12/04 06:13:45;;;;;;;0.40;0.40;;;2.10;99.90;;;;;;4413350;32;20611;-68
2021/12/04 06:16:11;;;;;;;0.40;0.40;;;2.10;99.90;;;;;;4419795;32;20100;-68
2021/12/04 06:18:36;;;;;;;0.50;0.50;;;2.20;99.90;;;;;;4421129;32;20446;-69
2021/12/04 06:23:02;;;;;;;0.40;0.40;;;2.30;99.90;;;;;;4418435;32;20116;-68
2021/12/04 06:23:48;;;;;;;0.30;0.30;;;2.30;99.90;;;;;;4406423;32;20465;-69
2021/12/04 06:26:14;;;;;;;0.57;0.57;;;2.20;99.90;;;;;;4420095;32;20493;-69
2021/12/04 06:28:39;;;;;;;0.62;0.62;;;2.30;99.90;;;;;;4418948;32;20069;-69
2021/12/04 06:31:07;;;;;;;0.40;0.40;;;2.20;99.90;;;;;;4416183;32;20093;-69
2021/12/04 06:33:32;;;;;;;0.60;0.60;;;2.20;99.90;;;;;;4416429;32;20073;-69
2021/12/04 06:35:58;;;;;;;0.40;0.40;;;2.20;99.90;;;;;;4418532;32;20070;-69
2021/12/04 06:38:24;;;;;;;1.80;1.17;;;2.30;99.90;;;;;;4418570;32;20802;-67
2021/12/04 06:40:51;;;;;;;0.35;0.35;;;2.30;99.90;;;;;;4415416;32;20087;-69
2021/12/04 06:43:17;;;;;;;0.40;0.40;;;2.40;99.90;;;;;;4417916;32;20078;-68
2021/12/04 06:45:47;;;;;;;4.93;1.50;;;2.30;99.90;;;;;;4418941;32;20057;-68
2021/12/04 06:48:18;;;;;;;0.60;0.60;;;2.30;99.90;;;;;;4417967;32;20116;-69
2021/12/04 06:53:48;;;;;;;1.65;1.02;;;2.30;99.90;;;;;;4416642;32;20081;-69
2021/12/04 06:55:59;;;;;;;1.60;1.00;;;2.30;99.90;;;;;;4407989;32;20086;-69
2021/12/04 06:58:26;;;;;;;0.30;0.30;;;2.40;99.90;;;;;;4418761;32;20136;-69
2021/12/04 07:00:53;;;;;;;0.40;0.40;;;2.50;99.90;;;;;;4418058;32;20120;-69
2021/12/04 07:03:19;;;;;;;0.65;0.65;;;2.30;99.90;;;;;;4415504;32;20130;-68
2021/12/04 07:05:45;;;;;;;0.45;0.45;;;2.30;99.90;;;;;;4420981;32;20139;-70
2021/12/04 07:08:10;;;;;;;0.40;0.40;;;2.30;99.90;;;;;;4417878;32;20093;-69
2021/12/04 07:10:37;;;;;;;0.45;0.45;;;2.40;99.90;;;;;;4414639;32;20086;-70
2021/12/04 07:13:03;;;;;;;1.00;1.00;;;2.40;99.90;;;;;;4418450;32;20069;-69
2021/12/04 07:15:31;;;;;;;0.43;0.43;;;2.40;99.90;;;;;;4414697;32;20137;-70
2021/12/04 07:17:58;;;;;;;0.60;0.60;;;2.50;99.90;;;;;;4416889;32;20123;-68
2021/12/04 07:20:24;;;;;;;0.73;0.73;;;2.40;99.90;;;;;;4416202;32;20082;-68
2021/12/04 07:22:49;;;;;;;0.70;0.70;;;2.50;99.90;;;;;;4413549;32;20074;-68
2021/12/04 07:25:16;;;;;;;3.80;1.15;;;2.50;99.90;;;;;;4415635;32;20077;-69
2021/12/04 07:27:42;;;;;;;0.70;0.70;;;2.60;99.90;;;;;;4414717;32;20078;-69
2021/12/04 07:30:09;;;;;;;0.30;0.30;;;2.60;99.90;;;;;;4418934;32;20061;-69
2021/12/04 07:32:36;;;;;;;0.40;0.40;;;2.50;99.90;;;;;;4415759;32;20062;-69
2021/12/04 07:35:02;;;;;;;0.77;0.77;;;2.50;99.90;;;;;;4414213;32;20065;-68
2021/12/04 07:37:28;;;;;;;0.70;0.70;;;2.50;99.90;;;;;;4416502;32;20219;-69
2021/12/04 07:39:54;;;;;;;0.40;0.40;;;2.40;99.90;;;;;;4415465;32;20058;-69
2021/12/04 07:42:20;;;;;;;0.52;0.52;;;2.40;99.90;;;;;;4421749;32;20078;-69
2021/12/04 07:44:45;;;;;;;2.17;1.37;;;2.40;99.90;;;;;;4424721;32;20073;-69
2021/12/04 07:47:11;;;;;;;0.40;0.40;;;2.40;99.90;;;;;;4417253;32;20554;-68
2021/12/04 07:49:38;;;;;;;1.77;0.93;;;2.40;99.90;;;;;;4418445;32;20116;-69
2021/12/04 07:52:06;;;;;;;5.07;2.28;;;2.40;99.90;;;;;;4421630;32;20506;-69
2021/12/04 07:54:32;;;;;;;0.65;0.65;;;2.40;99.90;;;;;;4418993;32;20049;-69
2021/12/04 07:56:58;;;;;;;0.43;0.43;;;2.50;99.90;;;;;;4421919;32;20082;-69
2021/12/04 07:59:24;;;;;;;0.62;0.62;;;2.40;99.90;;;;;;4417990;32;20097;-69
2021/12/04 08:01:50;;;;;;;0.50;0.50;;;2.40;99.90;;;;;;4417319;32;20154;-68
2021/12/04 08:04:15;;;;;;;0.30;0.30;;;2.50;99.90;;;;;;4418431;32;20400;-69
2021/12/04 08:06:41;;;;;;;3.20;1.00;;;2.50;99.90;;;;;;4419238;32;20501;-69
2021/12/04 08:09:06;;;;;;;0.50;0.50;;;2.50;99.90;;;;;;4419366;32;20100;-68
2021/12/04 08:11:32;;;;;;;0.40;0.40;;;2.50;99.90;;;;;;4418602;32;20155;-70
2021/12/04 08:13:58;;;;;;;0.30;0.30;;;2.50;99.90;;;;;;4417336;32;20147;-69
2021/12/04 08:16:24;;;;;;;0.40;0.40;;;2.50;99.90;;;;;;4424010;32;20064;-68
2021/12/04 08:18:53;;;;;;;0.40;0.40;;;2.60;99.90;;;;;;4415876;32;20147;-68
2021/12/04 08:21:20;;;;;;;0.30;0.30;;;2.60;99.90;;;;;;4419341;32;20101;-69
2021/12/04 08:23:45;;;;;;;0.50;0.50;;;2.70;99.90;;;;;;4421397;32;20159;-69
2021/12/04 08:26:11;;;;;;;0.35;0.35;;;2.60;99.90;;;;;;4420562;32;20068;-69
2021/12/04 08:28:37;;;;;;;0.50;0.50;;;2.60;99.90;;;;;;4421927;32;20078;-68
2021/12/04 08:31:02;;;;;;;0.50;0.50;;;2.60;99.90;;;;;;4421847;32;20069;-69
2021/12/04 08:33:28;;;;;;;0.40;0.40;;;2.60;99.90;;;;;;4420051;32;20420;-68
2021/12/04 08:35:54;;;;;;;0.40;0.40;;;2.70;99.90;;;;;;4416556;32;20065;-68
2021/12/04 08:38:20;;;;;;;0.65;0.65;;;2.70;99.90;;;;;;4416532;32;20188;-68
2021/12/04 08:40:45;;;;;;;3.90;1.10;;;2.70;99.90;;;;;;4419949;32;20233;-68
2021/12/04 08:43:12;;;;;;;0.70;0.70;;;2.80;99.90;;;;;;4416413;32;20065;-69
2021/12/04 08:45:39;;;;;;;8.95;0.68;;;2.90;99.90;;;;;;4416214;32;20119;-68
2021/12/04 08:48:05;;;;;;;0.65;0.65;;;2.90;99.90;;;;;;4418778;32;20518;-68
2021/12/04 08:50:32;;;;;;;0.60;0.60;;;2.80;99.90;;;;;;4415592;32;20156;-69
2021/12/04 08:53:00;;;;;;;0.40;0.40;;;2.80;99.90;;;;;;4419826;32;20073;-69
2021/12/04 08:55:28;;;;;;;0.30;0.30;;;2.70;99.90;;;;;;4424604;32;20084;-68
2021/12/04 08:57:54;;;;;;;0.90;0.90;;;2.80;99.90;;;;;;4423121;32;20094;-68
2021/12/04 09:00:34;;;;;;;1.02;0.85;;;2.70;99.90;;;;;;4419993;32;20062;-68
2021/12/04 09:03:00;;;;;;;0.30;0.30;;;2.80;99.90;;;;;;4416662;32;20213;-68
2021/12/04 09:05:26;;;;;;;0.30;0.30;;;2.80;99.90;;;;;;4415558;32;20065;-68
2021/12/04 09:07:53;;;;;;;0.30;0.30;;;2.90;99.90;;;;;;4421750;32;20132;-68
2021/12/04 09:10:19;;;;;;;0.45;0.45;;;2.90;99.90;;;;;;4416819;32;20129;-68
2021/12/04 09:12:46;;;;;;;0.82;0.77;;;2.90;99.90;;;;;;4419353;32;20081;-68
2021/12/04 09:15:14;;;;;;;0.30;0.30;;;2.90;99.90;;;;;;4419071;32;20069;-67
2021/12/04 09:17:40;;;;;;;0.40;0.40;;;2.90;99.90;;;;;;4418823;32;20065;-69
2021/12/04 09:20:07;;;;;;;0.47;0.47;;;2.80;99.90;;;;;;4421785;32;20073;-67
2021/12/04 09:22:35;;;;;;;0.37;0.37;;;2.80;99.90;;;;;;4416700;32;20412;-69
2021/12/04 09:25:04;;;;;;;0.50;0.50;;;2.80;99.90;;;;;;4421254;32;20183;-69
2021/12/04 09:27:39;;;;;;;0.50;0.50;;;2.90;99.90;;;;;;4419632;32;20221;-68
2021/12/04 09:30:18;;;;;;;2.53;1.20;;;3.00;99.90;;;;;;4414279;32;20077;-68
2021/12/04 09:33:18;;;;;;;0.47;0.47;;;3.00;99.90;;;;;;4419430;32;20117;-68
2021/12/04 09:59:58;;;;;;;0.70;0.70;;;2.90;99.90;;;;;;4406380;32;20619;-68
2021/12/04 10:00:24;;;;;;;0.30;0.30;;;2.90;99.90;;;;;;4405431;32;20443;-68
2021/12/04 10:14:21;;;;;;;0.60;0.60;;;2.90;99.90;;;;;;4416021;32;20112;-69
2021/12/04 10:17:07;;;;;;;0.60;0.60;;;2.90;99.90;;;;;;4411805;32;20054;-68
2021/12/04 10:19:37;;;;;;;0.30;0.30;;;2.90;99.90;;;;;;4406897;32;20129;-68
2021/12/04 10:22:16;;;;;;;2.17;0.70;;;2.90;99.90;;;;;;4416159;32;20158;-68
2021/12/04 10:32:26;;;;;;;0.32;0.32;;;3.00;99.90;;;;;;4401973;32;20077;-68
2021/12/04 10:33:13;;;;;;;0.40;0.40;;;2.90;99.90;;;;;;4406285;32;20077;-69
2021/12/04 10:35:39;;;;;;;3.80;1.10;;;3.00;99.90;;;;;;4417025;32;20069;-68
2021/12/04 10:38:07;;;;;;;1.00;0.88;;;3.00;99.90;;;;;;4420521;32;20407;-69
2021/12/04 10:40:46;;;;;;;1.45;0.95;;;3.00;99.90;;;;;;4420516;32;20765;-69
2021/12/04 10:43:17;;;;;;;0.32;0.32;;;3.10;99.90;;;;;;4423094;32;20058;-69
2021/12/04 10:45:50;;;;;;;0.30;0.30;;;3.10;99.90;;;;;;4420129;32;20069;-68
2021/12/04 10:48:21;;;;;;;0.43;0.43;;;2.90;99.90;;;;;;4417575;32;20483;-69
2021/12/04 10:53:23;;;;;;;0.30;0.30;;;3.00;99.90;;;;;;4417362;32;20282;-69
2021/12/04 10:56:11;;;;;;;0.98;0.62;;;2.90;99.90;;;;;;4423168;32;20513;-69
2021/12/04 10:59:05;;;;;;;2.58;0.80;;;2.90;99.90;;;;;;4407778;32;20584;-69
2021/12/04 11:04:15;;;;;;;1.60;0.82;;;3.00;99.90;;;;;;4413904;32;20758;-69
2021/12/04 11:07:06;;;;;;;1.00;0.95;;;3.00;99.90;;;;;;4417504;32;20192;-69
2021/12/04 11:19:01;;;;;;;0.82;0.82;;;3.00;99.90;;;;;;4414385;32;20138;-69
2021/12/04 11:21:06;;;;;;;0.70;0.70;;;3.00;99.90;;;;;;4410158;32;20517;-69
2021/12/04 11:24:44;;;;;;;0.93;0.88;;;3.00;99.90;;;;;;4407349;32;20061;-69
2021/12/04 11:27:05;;;;;;;0.35;0.35;;;3.00;99.90;;;;;;4407936;32;20128;-69
2021/12/04 11:36:58;;;;;;;1.40;0.93;;;3.00;99.90;;;;;;4409710;32;20066;-68
2021/12/04 11:40:28;;;;;;;0.57;0.57;;;3.20;99.90;;;;;;4406060;32;20083;-68
2021/12/04 11:42:59;;;;;;;1.87;1.58;;;3.10;99.90;;;;;;4418888;32;20097;-69
2021/12/04 11:45:41;;;;;;;0.40;0.40;;;3.10;99.90;;;;;;4421148;32;20082;-69
2021/12/04 11:48:06;;;;;;;0.40;0.40;;;3.10;99.90;;;;;;4418320;32;20069;-69
2021/12/04 11:50:35;;;;;;;1.00;0.68;;;3.00;99.90;;;;;;4416432;32;20086;-69
2021/12/04 11:53:06;;;;;;;0.45;0.45;;;3.00;99.90;;;;;;4417535;32;20077;-69
2021/12/04 11:55:36;;;;;;;4.50;1.42;;;3.00;99.90;;;;;;4417679;32;20069;-68
2021/12/04 11:58:02;;;;;;;0.47;0.47;;;3.10;99.90;;;;;;4422000;32;20549;-69
2021/12/04 12:00:34;;;;;;;0.40;0.40;;;3.10;99.90;;;;;;4423776;32;20084;-69
2021/12/04 12:03:17;;;;;;;0.50;0.50;;;3.00;99.90;;;;;;4421085;32;20053;-69
2021/12/04 12:05:47;;;;;;;0.52;0.52;;;3.00;99.90;;;;;;4421389;32;20082;-69
2021/12/04 12:08:31;;;;;;;0.70;0.70;;;3.00;99.90;;;;;;4424677;32;20093;-69
2021/12/04 12:10:59;;;;;;;2.83;1.05;;;2.90;99.90;;;;;;4417264;32;20528;-69
2021/12/04 12:13:35;;;;;;;0.40;0.40;;;2.90;99.90;;;;;;4421145;32;20484;-69
2021/12/04 12:16:07;;;;;;;0.50;0.50;;;2.90;99.90;;;;;;4418104;32;20085;-70
2021/12/04 12:18:44;;;;;;;0.50;0.50;;;3.00;99.90;;;;;;4424406;32;20073;-69
2021/12/04 12:21:12;;;;;;;1.10;0.70;;;3.00;99.90;;;;;;4422017;32;20066;-69
2021/12/04 12:24:11;;;;;;;0.40;0.40;;;3.00;99.90;;;;;;4419809;32;20069;-69
2021/12/04 12:26:51;;;;;;;1.27;0.60;;;3.00;99.90;;;;;;4406248;32;20074;-69
2021/12/04 12:32:04;;;;;;;0.40;0.40;;;3.10;99.90;;;;;;4416769;32;20175;-68
2021/12/04 12:32:44;;;;;;;0.43;0.43;;;3.20;99.90;;;;;;4398389;32;20085;-69
2021/12/04 12:36:29;;;;;;;2.40;0.82;;;3.10;99.90;;;;;;4420211;32;20085;-69
2021/12/04 12:38:29;;;;;;;0.40;0.40;;;3.20;99.90;;;;;;4410498;32;20116;-69
2021/12/04 12:40:58;;;;;;;0.45;0.45;;;3.30;99.90;;;;;;4421973;32;20081;-70
2021/12/04 12:43:36;;;;;;;0.98;0.85;;;3.20;99.90;;;;;;4421001;32;20124;-70
2021/12/04 12:46:01;;;;;;;0.40;0.40;;;3.20;99.90;;;;;;4422110;32;20082;-69
2021/12/04 12:48:27;;;;;;;0.95;0.60;;;3.30;99.90;;;;;;4415081;32;20070;-70
2021/12/04 12:50:54;;;;;;;0.50;0.50;;;3.20;99.90;;;;;;4420170;32;20070;-70
2021/12/04 12:53:28;;;;;;;0.45;0.45;;;3.30;99.90;;;;;;4419798;32;20097;-69
2021/12/04 12:56:06;;;;;;;0.40;0.40;;;3.20;99.90;;;;;;4423297;32;20089;-68
2021/12/04 12:58:39;;;;;;;0.40;0.40;;;3.20;99.90;;;;;;4421725;32;20129;-69
2021/12/04 13:12:06;;;;;;;0.65;0.65;;;3.30;99.90;;;;;;4406651;32;20235;-69
2021/12/04 13:12:51;;;;;;;0.50;0.50;;;3.30;99.90;;;;;;4406138;32;20513;-69
2021/12/04 13:15:33;;;;;;;1.12;0.98;;;3.30;99.90;;;;;;4418464;32;20076;-69
2021/12/04 13:20:31;;;;;;;1.45;1.15;;;3.30;99.90;;;;;;4414553;32;20166;-70
2021/12/04 13:22:57;;;;;;;0.50;0.50;;;3.30;99.90;;;;;;4419820;32;20061;-70
2021/12/04 13:25:22;;;;;;;0.60;0.60;;;3.30;99.90;;;;;;4420213;32;20053;-69
2021/12/04 13:30:15;;;;;;;1.75;0.80;;;3.20;99.90;;;;;;4418126;32;20077;-68
2021/12/04 13:32:44;;;;;;;0.52;0.52;;;3.30;99.90;;;;;;4420116;32;20548;-70
2021/12/04 13:35:25;;;;;;;1.25;1.10;;;3.30;99.90;;;;;;4419513;32;20081;-69
2021/12/04 13:38:00;;;;;;;0.70;0.70;;;3.30;99.90;;;;;;4419877;32;20128;-69
2021/12/04 13:40:27;;;;;;;0.35;0.35;;;3.30;99.90;;;;;;4423295;32;20085;-69
2021/12/04 13:42:53;;;;;;;0.68;0.68;;;3.20;99.90;;;;;;4421072;32;20082;-70
2021/12/04 13:45:21;;;;;;;0.43;0.43;;;3.30;99.90;;;;;;4421157;32;20069;-69
2021/12/04 13:47:52;;;;;;;0.55;0.52;;;3.40;99.90;;;;;;4418397;32;20089;-69
2021/12/04 13:53:12;;;;;;;0.40;0.40;;;3.40;99.90;;;;;;4414285;32;20125;-69
2021/12/04 13:55:40;;;;;;;0.40;0.40;;;3.30;99.90;;;;;;4414852;32;20482;-69
2021/12/04 13:58:06;;;;;;;0.52;0.52;;;3.40;99.90;;;;;;4413466;32;20111;-69
2021/12/04 14:00:33;;;;;;;0.50;0.50;;;3.40;99.90;;;;;;4414422;32;20086;-68
2021/12/04 14:02:59;;;;;;;0.50;0.50;;;3.30;99.90;;;;;;4423060;32;20105;-68
2021/12/04 14:05:25;;;;;;;0.40;0.40;;;3.40;99.90;;;;;;4423870;32;20073;-69
2021/12/04 14:07:54;;;;;;;0.50;0.50;;;3.40;99.90;;;;;;4415800;32;20089;-69
2021/12/04 14:10:23;;;;;;;0.40;0.40;;;3.40;99.90;;;;;;4427115;32;20428;-70
2021/12/04 14:12:50;;;;;;;0.45;0.45;;;3.40;99.90;;;;;;4423847;32;20139;-68
2021/12/04 14:15:19;;;;;;;1.00;0.90;;;3.50;99.90;;;;;;4425006;32;20190;-68
2021/12/04 14:17:45;;;;;;;0.43;0.43;;;3.30;99.90;;;;;;4419757;32;20118;-69
2021/12/04 14:20:20;;;;;;;1.12;0.82;;;3.40;99.90;;;;;;4417385;32;20066;-69
2021/12/04 14:22:49;;;;;;;1.45;0.70;;;3.30;99.90;;;;;;4424390;32;20185;-69
2021/12/04 14:25:17;;;;;;;0.73;0.73;;;3.30;99.90;;;;;;4424441;32;20152;-68
2021/12/04 14:27:44;;;;;;;0.73;0.73;;;3.30;99.90;;;;;;4417989;32;20062;-68
2021/12/04 14:30:14;;;;;;;0.70;0.70;;;3.30;99.90;;;;;;4418802;32;20073;-68
2021/12/04 14:32:45;;;;;;;0.55;0.55;;;3.40;99.90;;;;;;4425078;32;20057;-70
2021/12/04 14:35:15;;;;;;;0.55;0.55;;;3.30;99.90;;;;;;4423397;32;20085;-68
2021/12/04 14:37:44;;;;;;;0.52;0.50;;;3.40;99.90;;;;;;4425283;32;20111;-68
2021/12/04 14:40:13;;;;;;;0.80;0.80;;;3.40;99.90;;;;;;4426172;32;20439;-70
2021/12/04 14:42:39;;;;;;;2.80;1.00;;;3.50;99.90;;;;;;4419097;32;20403;-69
2021/12/04 14:45:08;;;;;;;0.45;0.45;;;3.40;99.90;;;;;;4435813;32;20090;-69
2021/12/04 14:47:37;;;;;;;1.25;1.15;;;3.40;99.90;;;;;;4418841;32;20077;-69
2021/12/04 14:50:06;;;;;;;0.82;0.82;;;3.30;99.90;;;;;;4428103;32;20064;-69
2021/12/04 14:52:33;;;;;;;1.45;0.88;;;3.30;99.90;;;;;;4418726;32;20495;-69
2021/12/04 14:55:13;;;;;;;0.65;0.65;;;3.30;99.90;;;;;;4430743;32;20098;-69
2021/12/04 14:57:42;;;;;;;0.70;0.70;;;3.30;99.90;;;;;;4423980;32;20116;-69
2021/12/04 15:00:14;;;;;;;1.45;0.95;;;3.20;99.90;;;;;;4431196;32;20065;-70
2021/12/04 15:02:40;;;;;;;1.27;0.90;;;3.20;99.90;;;;;;4423290;32;20097;-69
2021/12/04 15:05:07;;;;;;;0.57;0.57;;;3.20;99.90;;;;;;4423837;32;20085;-69
2021/12/04 15:07:34;;;;;;;1.00;0.90;;;3.10;99.90;;;;;;4420992;32;20074;-70